Albatros — DITX — position and weather

sailwx.info

Track history (hours):
 
Tides and Currents Weather Stations Pressure Air Temp Water Temp Dewpoint Dewpoint Depression Visibility Wind Speed Wind Dir Waves Ship Positions

Albatros

Last reported at 2017-Jun-22 11:00 UTC. Time now 2017-Jul-23 16:36 UTC.
Position N 54°42' E 013°11'.
Warning: this ship's position is 31 days out of date.

Length 16 m; draft 2 m.

MMSI: 211226200.

Date/timePositionNaut miles runAvg speedWind from/ knotsBaromVisibWave heightAir tempDewpointWater temp
2017-Jun-22 11:00N 54°42' E 013°11'1 1.0
2017-Jun-22 10:25N 54°41' E 013°10'1 2.2
2017-Jun-22 10:00N 54°42' E 013°12'0 0.9
2017-Jun-22 09:29N 54°42' E 013°13'0 0.3
2017-Jun-22 08:58N 54°42' E 013°12'0 0.3
2017-Jun-22 08:23N 54°42' E 013°13'0 0.4
2017-Jun-22 07:58N 54°42' E 013°12'1 2.7
2017-Jun-22 07:30N 54°41' E 013°10'  
2017-Jun-19 10:58N 54°41' E 013°10'2 4.0
2017-Jun-19 10:30N 54°40' E 013°13'1 2.5
2017-Jun-19 09:57N 54°42' E 013°13'0 0.8
2017-Jun-19 09:30N 54°42' E 013°12'0 0.3
2017-Jun-19 08:59N 54°42' E 013°12'0 0.1
2017-Jun-19 08:29N 54°42' E 013°12'1 2.1
2017-Jun-19 07:55N 54°42' E 013°10'0 0.2
2017-Jun-19 07:14N 54°41' E 013°11'0 0.4
2017-Jun-19 07:00N 54°42' E 013°11'3 5.2
2017-Jun-19 06:29N 54°39' E 013°11'3 6.8
2017-Jun-19 05:59N 54°35' E 013°10'3 5.4
2017-Jun-19 05:22N 54°32' E 013°08'2 4.8
2017-Jun-19 05:00N 54°31' E 013°10'  
Track history (hours):
 
Tides and Currents Weather Stations Pressure Air Temp Water Temp Dewpoint Dewpoint Depression Visibility Wind Speed Wind Dir Waves Ship Positions

Albatros

Last reported at 2017-Jun-22 11:00 UTC. Time now 2017-Jul-23 16:36 UTC.
Position N 54°42' E 013°11'.
Warning: this ship's position is 31 days out of date.

Length 16 m; draft 2 m.

MMSI: 211226200.

Date/timePositionNaut miles runAvg speedWind from/ knotsBaromVisibWave heightAir tempDewpointWater temp
2017-Jun-22 11:00N 54°42' E 013°11'1 1.0
2017-Jun-22 10:25N 54°41' E 013°10'1 2.2
2017-Jun-22 10:00N 54°42' E 013°12'0 0.9
2017-Jun-22 09:29N 54°42' E 013°13'0 0.3
2017-Jun-22 08:58N 54°42' E 013°12'0 0.3
2017-Jun-22 08:23N 54°42' E 013°13'0 0.4
2017-Jun-22 07:58N 54°42' E 013°12'1 2.7
2017-Jun-22 07:30N 54°41' E 013°10'  
2017-Jun-19 10:58N 54°41' E 013°10'2 4.0
2017-Jun-19 10:30N 54°40' E 013°13'1 2.5
2017-Jun-19 09:57N 54°42' E 013°13'0 0.8
2017-Jun-19 09:30N 54°42' E 013°12'0 0.3
2017-Jun-19 08:59N 54°42' E 013°12'0 0.1
2017-Jun-19 08:29N 54°42' E 013°12'1 2.1
2017-Jun-19 07:55N 54°42' E 013°10'0 0.2
2017-Jun-19 07:14N 54°41' E 013°11'0 0.4
2017-Jun-19 07:00N 54°42' E 013°11'3 5.2
2017-Jun-19 06:29N 54°39' E 013°11'3 6.8
2017-Jun-19 05:59N 54°35' E 013°10'3 5.4
2017-Jun-19 05:22N 54°32' E 013°08'2 4.8
2017-Jun-19 05:00N 54°31' E 013°10'  

Dump ship's entire track history